Time;durP1;ratioP1;P1;durP2;ratioP2;P2;SDS_P1;SDS_P2;PMS_P1;PMS_P2;Temp;Humidity;BMP_temperature;BMP_pressure;BME280_temperature;BME280_humidity;BME280_pressure;Samples;Min_cycle;Max_cycle;Signal;HPM_P1;HPM_P2
2021/06/26 00:02:23;;;;;;;1.70;1.60;;;14.80;99.90;14.00;96957.00;;;;5076797;28;20228;-64
2021/06/26 00:05:13;;;;;;;3.17;1.50;;;14.70;99.90;13.80;96948.00;;;;5065446;28;20200;-64
2021/06/26 00:08:02;;;;;;;1.73;1.63;;;14.50;99.90;13.90;96949.00;;;;5066808;28;20218;-64
2021/06/26 00:10:53;;;;;;;1.90;1.70;;;14.40;99.90;13.90;96948.00;;;;5066584;28;20231;-64
2021/06/26 00:13:42;;;;;;;2.60;2.17;;;14.40;99.90;13.90;96948.00;;;;5064207;28;20532;-64
2021/06/26 00:16:31;;;;;;;3.70;3.40;;;14.40;99.90;13.90;96950.00;;;;5064916;28;20235;-65
2021/06/26 00:19:20;;;;;;;2.03;1.90;;;14.30;99.90;13.90;96960.00;;;;5069398;28;20216;-64
2021/06/26 00:22:09;;;;;;;3.57;2.20;;;14.30;99.90;14.00;96964.00;;;;5068669;28;20219;-65
2021/06/26 00:24:58;;;;;;;2.47;2.27;;;14.30;99.90;14.00;96964.00;;;;5069009;28;20208;-64
2021/06/26 00:27:48;;;;;;;2.40;2.20;;;14.30;99.90;14.00;96969.00;;;;5068420;28;20219;-64
2021/06/26 00:30:38;;;;;;;2.77;2.50;;;14.40;99.90;14.00;96975.00;;;;5067496;28;20597;-64
2021/06/26 00:33:27;;;;;;;2.20;2.00;;;14.40;99.90;14.00;96977.00;;;;5069370;28;20204;-64
2021/06/26 00:36:16;;;;;;;2.23;1.80;;;14.40;99.90;14.00;96970.00;;;;5068795;28;20196;-64
2021/06/26 00:39:05;;;;;;;3.70;3.40;;;14.40;99.90;14.00;96983.00;;;;5070575;28;20283;-65
2021/06/26 00:41:54;;;;;;;3.43;1.80;;;14.40;99.90;14.00;96984.00;;;;5068828;28;20401;-66
2021/06/26 00:44:44;;;;;;;1.80;1.70;;;14.40;99.90;14.00;96978.00;;;;5068748;28;20208;-66
2021/06/26 00:47:33;;;;;;;3.93;1.87;;;14.40;99.90;13.70;96992.00;;;;5055651;28;20204;-65
2021/06/26 00:50:26;;;;;;;1.70;1.60;;;14.30;99.90;13.60;96981.00;;;;5068027;28;20259;-65
2021/06/26 00:53:15;;;;;;;4.17;2.10;;;14.20;99.90;13.50;96987.00;;;;5067377;28;20200;-65
2021/06/26 00:56:05;;;;;;;2.23;1.60;;;14.20;99.90;13.50;96993.00;;;;5067412;28;20212;-65
2021/06/26 00:58:56;;;;;;;3.90;2.10;;;14.10;99.90;13.70;96980.00;;;;5069061;28;20212;-65
2021/06/26 01:01:46;;;;;;;4.07;2.10;;;14.10;99.90;13.60;96981.00;;;;5067357;28;20231;-64
2021/06/26 01:04:35;;;;;;;1.83;1.73;;;14.10;99.90;13.50;96982.00;;;;5066047;28;20334;-65
2021/06/26 01:07:24;;;;;;;2.70;1.83;;;14.10;99.90;13.40;96983.00;;;;5068201;28;20208;-65
2021/06/26 01:10:14;;;;;;;2.87;1.80;;;14.00;99.90;13.40;96987.00;;;;5067028;28;20231;-65
2021/06/26 01:13:03;;;;;;;2.80;1.70;;;14.00;99.90;13.50;96998.00;;;;5067273;28;20212;-65
2021/06/26 01:15:53;;;;;;;1.77;1.67;;;14.00;99.90;13.50;96986.00;;;;5055620;28;20205;-65
2021/06/26 01:18:43;;;;;;;1.80;1.70;;;14.00;99.90;13.60;96984.00;;;;5058285;28;20196;-65
2021/06/26 01:21:36;;;;;;;5.00;2.10;;;14.00;99.90;13.60;96988.00;;;;5086167;28;20230;-65
2021/06/26 01:24:27;;;;;;;2.43;2.23;;;14.00;99.90;13.60;96993.00;;;;5088592;28;20203;-65
2021/06/26 01:27:16;;;;;;;2.27;2.07;;;14.00;99.90;13.70;97000.00;;;;5088138;28;20720;-65
2021/06/26 01:30:06;;;;;;;21.17;5.17;;;14.00;99.90;13.70;96999.00;;;;5088006;28;20223;-64
2021/06/26 01:32:55;;;;;;;3.77;2.33;;;14.10;99.90;13.80;96993.00;;;;5086749;28;20215;-65
2021/06/26 01:35:44;;;;;;;2.73;2.23;;;14.10;99.90;13.90;96991.00;;;;5088523;28;20591;-64
2021/06/26 01:38:33;;;;;;;2.53;2.00;;;14.10;99.90;13.70;96993.00;;;;5087788;28;20583;-64
2021/06/26 01:41:24;;;;;;;2.40;2.13;;;14.10;99.90;13.50;97003.00;;;;5087764;28;20219;-65
2021/06/26 01:44:14;;;;;;;2.10;2.00;;;14.00;99.90;13.30;97000.00;;;;5086647;28;20203;-64
2021/06/26 01:47:06;;;;;;;2.43;1.90;;;14.00;99.90;13.40;97000.00;;;;5087163;28;20214;-64
2021/06/26 01:49:55;;;;;;;2.57;2.13;;;14.00;99.90;13.40;96993.00;;;;5087746;28;20227;-63
2021/06/26 01:52:45;;;;;;;3.43;2.13;;;13.90;99.90;13.50;97005.00;;;;5096396;28;20219;-65
2021/06/26 01:55:34;;;;;;;7.67;2.93;;;13.90;99.90;13.60;97002.00;;;;5106770;28;20194;-63
2021/06/26 01:58:24;;;;;;;4.03;2.50;;;14.00;99.90;13.80;97004.00;;;;5106449;28;20195;-65
2021/06/26 02:01:13;;;;;;;3.40;3.10;;;14.00;99.90;13.90;97004.00;;;;5107171;28;20226;-64
2021/06/26 02:04:03;;;;;;;4.37;2.83;;;14.10;99.90;13.80;96997.00;;;;5106450;28;20207;-65
2021/06/26 02:06:51;;;;;;;3.23;2.00;;;14.20;99.90;13.70;97006.00;;;;5107587;28;20195;-65
2021/06/26 02:09:40;;;;;;;6.40;2.20;;;14.10;99.90;13.70;97004.00;;;;5106931;28;20227;-65
2021/06/26 02:12:29;;;;;;;4.53;2.50;;;14.10;99.90;13.60;97003.00;;;;5106465;28;20618;-65
2021/06/26 02:15:20;;;;;;;4.30;2.63;;;14.10;99.90;13.50;97018.00;;;;5086682;28;20222;-64
2021/06/26 02:18:09;;;;;;;2.40;2.20;;;14.10;99.90;13.60;97006.00;;;;5104041;28;20203;-64
2021/06/26 02:20:57;;;;;;;2.67;2.47;;;14.00;99.90;13.60;97013.00;;;;5106525;28;20229;-64
2021/06/26 02:23:46;;;;;;;3.83;2.57;;;14.00;99.90;13.70;97012.00;;;;5107077;28;20741;-64
2021/06/26 02:26:35;;;;;;;2.77;2.50;;;14.00;99.90;13.60;97003.00;;;;5107041;28;20218;-64
2021/06/26 02:29:24;;;;;;;2.90;2.30;;;14.00;99.90;13.70;97017.00;;;;5107127;28;20207;-64
2021/06/26 02:32:15;;;;;;;4.60;2.60;;;14.00;99.90;13.60;97015.00;;;;5105965;28;20253;-63
2021/06/26 02:35:05;;;;;;;2.70;2.47;;;14.10;99.90;13.60;97012.00;;;;5106286;28;20199;-63
2021/06/26 02:37:54;;;;;;;2.73;2.13;;;14.10;99.90;13.60;97007.00;;;;5107140;28;20213;-64
2021/06/26 02:40:43;;;;;;;3.70;2.17;;;14.10;99.90;13.70;97022.00;;;;5105779;28;20198;-64
2021/06/26 02:43:32;;;;;;;3.03;2.60;;;14.10;99.90;13.70;97021.00;;;;5106730;28;20198;-63
2021/06/26 02:46:21;;;;;;;2.40;2.20;;;14.10;99.90;13.70;97026.00;;;;5105122;28;20198;-62
2021/06/26 02:49:11;;;;;;;2.83;2.20;;;14.10;99.90;13.60;97010.00;;;;5105428;28;20218;-65
2021/06/26 02:52:00;;;;;;;2.30;2.10;;;14.10;99.90;13.60;97024.00;;;;5102191;28;20230;-63
2021/06/26 02:54:49;;;;;;;4.73;3.07;;;14.10;99.90;13.70;97025.00;;;;5106072;28;20210;-64
2021/06/26 02:57:38;;;;;;;3.63;1.80;;;14.10;99.90;13.70;97018.00;;;;5095744;28;20206;-64
2021/06/26 03:00:27;;;;;;;2.70;2.50;;;14.10;99.90;13.70;97025.00;;;;5106022;28;20213;-65
2021/06/26 03:03:16;;;;;;;2.67;2.00;;;14.10;99.90;13.80;97025.00;;;;5103869;28;20206;-64
2021/06/26 03:06:07;;;;;;;4.27;2.10;;;14.10;99.90;13.80;97022.00;;;;5104548;28;20202;-63
2021/06/26 03:08:55;;;;;;;3.03;2.10;;;14.10;99.90;13.80;97015.00;;;;5093932;28;20202;-61
2021/06/26 03:11:44;;;;;;;3.90;3.13;;;14.10;99.90;13.80;97016.00;;;;5105558;28;20612;-63
2021/06/26 03:14:33;;;;;;;2.13;1.93;;;14.20;99.90;13.80;97019.00;;;;5104494;28;20202;-63
2021/06/26 03:17:22;;;;;;;2.70;2.50;;;14.20;99.90;13.80;97026.00;;;;5097036;28;20202;-62
2021/06/26 03:20:12;;;;;;;4.33;2.00;;;14.20;99.90;13.70;97022.00;;;;5105408;28;20210;-63
2021/06/26 03:23:02;;;;;;;3.10;2.40;;;14.20;99.90;13.80;97021.00;;;;5105321;28;20757;-64
2021/06/26 03:25:51;;;;;;;2.20;1.80;;;14.20;99.90;13.80;97026.00;;;;5105186;28;20203;-63
2021/06/26 03:28:39;;;;;;;4.30;1.90;;;14.20;99.90;13.80;97029.00;;;;5104201;28;20668;-64
2021/06/26 03:31:31;;;;;;;2.40;2.20;;;14.20;99.90;13.70;97024.00;;;;5104878;28;20712;-65
2021/06/26 03:34:20;;;;;;;2.40;2.10;;;14.20;99.90;13.80;97033.00;;;;5105650;28;20221;-64
2021/06/26 03:37:09;;;;;;;2.33;1.87;;;14.20;99.90;13.80;97035.00;;;;5105308;28;20191;-64
2021/06/26 03:39:59;;;;;;;2.57;2.00;;;14.20;99.90;13.80;97038.00;;;;5105433;28;20213;-65
2021/06/26 03:42:48;;;;;;;2.80;2.00;;;14.20;99.90;13.80;97029.00;;;;5105141;28;20219;-64
2021/06/26 03:45:37;;;;;;;2.10;1.80;;;14.20;99.90;13.80;97029.00;;;;5105496;28;20206;-63
2021/06/26 03:48:26;;;;;;;2.10;2.00;;;14.20;99.90;13.90;97029.00;;;;5105630;28;20202;-62
2021/06/26 03:51:15;;;;;;;3.60;2.30;;;14.20;99.90;14.10;97039.00;;;;5105714;28;20246;-63
2021/06/26 03:54:04;;;;;;;2.70;2.50;;;14.30;99.90;14.10;97031.00;;;;5105504;28;20194;-63
2021/06/26 03:56:55;;;;;;;2.33;2.13;;;14.40;99.90;14.20;97033.00;;;;5104581;28;20211;-63
2021/06/26 03:59:44;;;;;;;5.80;2.33;;;14.50;99.90;14.30;97044.00;;;;5104616;28;20202;-64
2021/06/26 04:02:33;;;;;;;1.97;1.87;;;14.50;99.90;14.30;97037.00;;;;5105131;28;20221;-63
2021/06/26 04:05:22;;;;;;;1.47;1.37;;;14.50;99.90;14.30;97040.00;;;;5106004;28;20199;-63
2021/06/26 04:08:11;;;;;;;4.60;2.00;;;14.60;99.90;14.30;97034.00;;;;5105304;28;20201;-62
2021/06/26 04:10:59;;;;;;;2.27;2.07;;;14.60;99.90;14.30;97040.00;;;;5104746;28;20230;-61
2021/06/26 04:13:50;;;;;;;1.60;1.50;;;14.60;99.90;14.40;97052.00;;;;5105248;28;20210;-64
2021/06/26 04:16:39;;;;;;;3.03;2.13;;;14.60;99.90;14.40;97051.00;;;;5090833;28;20198;-61
2021/06/26 04:19:27;;;;;;;3.93;2.10;;;14.70;99.90;14.40;97044.00;;;;5104538;28;20215;-62
2021/06/26 04:22:16;;;;;;;2.10;1.63;;;14.70;99.90;14.50;97049.00;;;;5104294;28;20743;-62
2021/06/26 04:25:07;;;;;;;2.50;2.13;;;14.70;99.90;14.70;97040.00;;;;5104733;28;20217;-63
2021/06/26 04:27:56;;;;;;;1.97;1.87;;;14.80;99.90;14.70;97042.00;;;;5104948;28;20210;-62
2021/06/26 04:30:46;;;;;;;2.87;1.73;;;14.90;99.90;14.70;97048.00;;;;5105239;28;20230;-63
2021/06/26 04:33:35;;;;;;;2.17;2.00;;;14.90;99.90;14.70;97048.00;;;;5105033;28;20211;-64
2021/06/26 04:36:24;;;;;;;2.00;1.80;;;15.00;99.90;14.80;97051.00;;;;5092423;28;20199;-63
2021/06/26 04:39:13;;;;;;;3.60;1.87;;;15.00;99.90;14.80;97046.00;;;;5105095;28;20210;-62
2021/06/26 04:42:02;;;;;;;2.20;2.10;;;15.00;99.90;14.80;97055.00;;;;5104924;28;20222;-62
2021/06/26 04:44:51;;;;;;;3.97;2.27;;;15.10;99.90;14.90;97054.00;;;;5105436;28;20207;-61
2021/06/26 04:47:43;;;;;;;2.37;2.17;;;15.10;99.90;15.10;97054.00;;;;5091523;28;20218;-61
2021/06/26 04:50:32;;;;;;;2.80;2.17;;;15.20;99.90;15.40;97047.00;;;;5104558;28;20194;-63
2021/06/26 04:53:21;;;;;;;3.27;1.87;;;15.30;99.90;15.40;97042.00;;;;5105132;28;20207;-62
2021/06/26 04:56:10;;;;;;;5.37;2.90;;;15.50;99.90;15.30;97040.00;;;;5105207;28;20198;-63
2021/06/26 04:58:59;;;;;;;1.70;1.60;;;15.60;99.90;15.50;97046.00;;;;5108009;28;20213;-63
2021/06/26 05:01:48;;;;;;;2.80;2.10;;;15.60;99.90;15.30;97043.00;;;;5107841;28;20215;-63
2021/06/26 05:04:38;;;;;;;4.40;1.93;;;15.70;99.90;15.20;97035.00;;;;5108259;28;20205;-64
2021/06/26 05:07:27;;;;;;;2.30;2.20;;;15.70;99.90;15.40;97047.00;;;;5096920;28;20243;-64
2021/06/26 05:10:16;;;;;;;3.13;2.20;;;15.70;99.90;15.40;97041.00;;;;5109415;28;20202;-64
2021/06/26 05:13:05;;;;;;;4.17;2.90;;;15.70;99.90;15.30;97045.00;;;;5108325;28;20230;-65
2021/06/26 05:15:54;;;;;;;2.03;1.93;;;15.70;99.90;15.30;97049.00;;;;5095717;28;20200;-64
2021/06/26 05:18:43;;;;;;;5.43;2.10;;;15.70;99.90;15.40;97045.00;;;;5096115;28;20244;-64
2021/06/26 05:21:33;;;;;;;5.13;2.10;;;15.70;99.90;15.50;97047.00;;;;5107608;28;20223;-64
2021/06/26 05:24:22;;;;;;;4.93;2.77;;;15.80;99.90;15.70;97045.00;;;;5107930;28;20693;-65
2021/06/26 05:27:11;;;;;;;2.23;2.13;;;15.90;99.90;15.80;97044.00;;;;5108152;28;20202;-65
2021/06/26 05:30:00;;;;;;;2.93;2.60;;;16.00;99.90;15.80;97048.00;;;;5095924;28;20677;-64
2021/06/26 05:32:49;;;;;;;3.20;2.90;;;16.10;99.90;16.00;97042.00;;;;5107147;28;20230;-64
2021/06/26 05:35:37;;;;;;;5.60;2.93;;;16.10;99.90;16.10;97038.00;;;;5107090;28;20195;-64
2021/06/26 05:38:28;;;;;;;2.43;2.10;;;16.20;99.90;16.50;97042.00;;;;5108159;28;20211;-64
2021/06/26 05:41:17;;;;;;;3.63;2.93;;;16.40;99.90;16.50;97037.00;;;;5106200;28;20215;-64
2021/06/26 05:44:06;;;;;;;3.33;2.27;;;16.50;99.90;16.60;97034.00;;;;5105689;28;20630;-63
2021/06/26 05:46:55;;;;;;;4.10;2.90;;;16.60;99.90;16.90;97040.00;;;;5107076;28;20206;-64
2021/06/26 05:49:44;;;;;;;2.93;2.60;;;16.80;99.90;17.20;97036.00;;;;5105910;28;20234;-64
2021/06/26 05:52:33;;;;;;;11.10;3.83;;;17.00;99.90;17.40;97025.00;;;;5094210;28;20719;-64
2021/06/26 05:55:24;;;;;;;6.70;3.33;;;17.20;99.90;17.60;97032.00;;;;5105966;28;20210;-64
2021/06/26 05:58:13;;;;;;;3.87;3.47;;;17.40;99.90;17.90;97026.00;;;;5106806;28;20202;-63
2021/06/26 06:01:02;;;;;;;3.67;3.40;;;17.60;99.90;18.20;97027.00;;;;5105566;28;20231;-64
2021/06/26 06:03:52;;;;;;;2.97;2.73;;;17.80;99.90;18.30;97024.00;;;;5107679;28;20320;-64
2021/06/26 06:06:42;;;;;;;3.83;3.23;;;18.10;99.90;18.50;97011.00;;;;5107353;28;20207;-64
2021/06/26 06:09:30;;;;;;;3.93;3.30;;;18.30;99.90;18.70;97009.00;;;;5104175;28;20230;-64
2021/06/26 06:12:21;;;;;;;4.47;3.43;;;18.40;99.90;18.80;97005.00;;;;5098813;28;20234;-64
2021/06/26 06:15:12;;;;;;;3.03;2.73;;;18.60;99.90;19.00;97000.00;;;;5096478;28;20199;-64
2021/06/26 06:18:01;;;;;;;3.33;3.03;;;18.80;99.90;19.20;97002.00;;;;5094969;28;20677;-64
2021/06/26 06:20:50;;;;;;;3.90;2.80;;;18.90;99.90;19.30;96993.00;;;;5095572;28;20308;-64
2021/06/26 06:23:39;;;;;;;3.80;2.40;;;19.10;99.90;19.50;97001.00;;;;5098783;28;20210;-64
2021/06/26 06:26:30;;;;;;;4.03;3.03;;;19.20;99.90;19.60;97013.00;;;;5099751;28;20226;-64
2021/06/26 06:29:20;;;;;;;3.67;3.37;;;19.40;99.90;19.70;97007.00;;;;5095528;28;20584;-64
2021/06/26 06:32:09;;;;;;;3.00;2.60;;;19.60;99.90;19.70;97012.00;;;;5104154;28;20234;-64
2021/06/26 06:34:58;;;;;;;2.60;2.40;;;19.70;99.90;19.90;97002.00;;;;5106460;28;20677;-64
2021/06/26 06:37:47;;;;;;;2.50;2.30;;;19.70;99.90;19.90;96999.00;;;;5100222;28;20209;-64
2021/06/26 06:40:36;;;;;;;2.27;2.07;;;19.90;99.90;20.00;96993.00;;;;5105895;28;20217;-67
2021/06/26 06:43:25;;;;;;;3.30;2.33;;;19.90;99.90;20.00;97001.00;;;;5105560;28;20199;-65
2021/06/26 06:46:15;;;;;;;2.60;2.40;;;20.00;99.90;20.20;97002.00;;;;5104192;28;20574;-65
2021/06/26 06:49:04;;;;;;;2.60;2.00;;;20.10;99.90;20.30;97014.00;;;;5105855;28;20587;-65
2021/06/26 06:51:53;;;;;;;4.13;1.90;;;20.20;99.90;20.30;97004.00;;;;5099088;28;20229;-64
2021/06/26 06:54:42;;;;;;;3.43;1.80;;;20.60;99.90;20.30;97006.00;;;;5098305;28;20213;-65
2021/06/26 06:57:31;;;;;;;2.33;1.83;;;20.30;99.90;20.50;96998.00;;;;5088374;28;20199;-65
2021/06/26 07:00:20;;;;;;;4.13;1.80;;;20.40;99.90;20.60;96993.00;;;;5102050;28;20210;-64
2021/06/26 07:03:10;;;;;;;1.70;1.50;;;20.50;99.90;20.60;96992.00;;;;5100455;28;20198;-64
2021/06/26 07:05:59;;;;;;;1.93;1.73;;;20.60;99.90;20.90;96998.00;;;;5106899;28;20215;-64
2021/06/26 07:08:48;;;;;;;3.13;1.40;;;20.70;99.90;21.00;97000.00;;;;5105544;28;20206;-63
2021/06/26 07:11:37;;;;;;;1.43;1.33;;;20.80;99.90;21.20;96990.00;;;;5105072;28;20222;-64
2021/06/26 07:14:26;;;;;;;1.50;1.40;;;21.00;99.90;21.20;96991.00;;;;5104554;28;20201;-63
2021/06/26 07:17:15;;;;;;;2.00;1.90;;;21.10;99.90;21.40;96991.00;;;;5095740;28;20199;-65
2021/06/26 07:20:08;;;;;;;2.67;1.60;;;21.20;99.90;21.00;96988.00;;;;5094221;28;20218;-66
2021/06/26 07:22:57;;;;;;;1.93;1.60;;;21.30;99.90;21.50;96986.00;;;;5096069;28;20203;-66
2021/06/26 07:25:46;;;;;;;1.80;1.70;;;21.40;99.90;21.60;96989.00;;;;5099229;28;20578;-66
2021/06/26 07:28:34;;;;;;;4.67;1.80;;;21.50;99.90;21.90;96976.00;;;;5106447;28;20248;-66
2021/06/26 07:31:23;;;;;;;2.37;1.60;;;21.60;99.90;22.00;96976.00;;;;5104566;28;20701;-65
2021/06/26 07:34:12;;;;;;;1.93;1.73;;;21.80;99.90;22.00;96977.00;;;;5106046;28;20218;-66
2021/06/26 07:37:03;;;;;;;1.93;1.47;;;21.90;99.90;21.80;96974.00;;;;5105812;28;20210;-65
2021/06/26 07:39:51;;;;;;;1.30;1.20;;;22.00;99.90;21.60;96969.00;;;;5095384;28;20583;-66
2021/06/26 07:42:40;;;;;;;1.73;1.60;;;22.00;99.90;22.10;96957.00;;;;5103179;28;20709;-65
2021/06/26 07:45:29;;;;;;;1.10;1.07;;;22.00;99.90;22.50;96958.00;;;;5102735;28;20209;-66
2021/06/26 07:48:18;;;;;;;1.37;1.27;;;22.20;99.90;22.60;96962.00;;;;5105110;28;20195;-66
2021/06/26 07:51:07;;;;;;;0.90;0.80;;;22.30;99.90;22.20;96960.00;;;;5104549;28;20232;-66
2021/06/26 07:53:57;;;;;;;2.33;1.20;;;22.40;99.90;22.70;96948.00;;;;5104104;28;20747;-66
2021/06/26 07:56:47;;;;;;;1.03;1.03;;;22.50;99.90;23.00;96951.00;;;;5105624;28;20202;-64
2021/06/26 07:59:36;;;;;;;1.37;1.27;;;22.70;99.90;23.20;96950.00;;;;5104672;28;20214;-65
2021/06/26 08:02:25;;;;;;;1.33;1.23;;;22.80;99.90;23.30;96947.00;;;;5104526;28;20511;-65
2021/06/26 08:05:14;;;;;;;2.07;1.87;;;23.00;99.90;23.50;96951.00;;;;5105328;28;20217;-65
2021/06/26 08:08:11;;;;;;;1.20;1.10;;;23.20;99.90;23.50;96946.00;;;;5104081;28;20300;-66
2021/06/26 08:11:01;;;;;;;0.90;0.90;;;23.30;99.90;23.60;96944.00;;;;5105120;28;20234;-66
2021/06/26 08:13:51;;;;;;;1.00;1.00;;;23.40;99.90;23.70;96943.00;;;;5105287;28;20237;-66
2021/06/26 08:16:40;;;;;;;1.13;1.03;;;23.50;99.90;23.90;96932.00;;;;5090657;28;20199;-65
2021/06/26 08:19:29;;;;;;;1.00;0.90;;;23.60;99.90;23.80;96931.00;;;;5103722;28;20295;-66
2021/06/26 08:22:18;;;;;;;1.37;1.23;;;23.80;99.70;24.10;96929.00;;;;5103736;28;20234;-66
2021/06/26 08:25:08;;;;;;;0.70;0.70;;;23.90;98.00;24.20;96934.00;;;;5092948;28;20206;-65
2021/06/26 08:27:59;;;;;;;1.33;1.20;;;24.00;99.10;24.20;96940.00;;;;5102538;28;20252;-63
2021/06/26 08:30:49;;;;;;;2.83;1.63;;;24.00;97.00;24.50;96933.00;;;;5103896;28;20584;-63
2021/06/26 08:33:38;;;;;;;0.77;0.77;;;24.20;97.00;24.40;96930.00;;;;5102353;28;20287;-63
2021/06/26 08:36:29;;;;;;;2.20;1.00;;;24.30;95.10;24.40;96930.00;;;;5104480;28;20197;-66
2021/06/26 08:39:20;;;;;;;1.07;0.97;;;24.30;94.20;24.70;96923.00;;;;5107043;28;20210;-65
2021/06/26 08:42:10;;;;;;;1.67;1.10;;;24.40;95.20;25.00;96921.00;;;;5106806;28;20219;-64
2021/06/26 08:45:04;;;;;;;2.87;1.17;;;24.60;94.40;25.20;96924.00;;;;5107618;28;20203;-64
2021/06/26 08:47:56;;;;;;;0.90;0.90;;;24.80;93.80;25.20;96919.00;;;;5096618;28;20276;-64
2021/06/26 08:50:47;;;;;;;0.67;0.67;;;24.90;91.90;25.40;96912.00;;;;5108163;28;20208;-65
2021/06/26 08:53:36;;;;;;;2.17;1.10;;;25.10;91.40;25.60;96909.00;;;;5107576;28;20219;-65
2021/06/26 08:56:25;;;;;;;3.50;1.47;;;25.20;90.10;25.60;96914.00;;;;5106061;28;20228;-64
2021/06/26 08:59:16;;;;;;;1.63;0.70;;;25.40;87.10;25.70;96915.00;;;;5105039;28;20201;-64
2021/06/26 09:02:06;;;;;;;1.03;0.77;;;25.50;85.60;26.00;96907.00;;;;5106893;28;20611;-64
2021/06/26 09:04:56;;;;;;;1.10;1.00;;;25.60;84.10;26.50;96907.00;;;;5101470;28;20215;-64
2021/06/26 09:07:45;;;;;;;0.77;0.77;;;25.80;84.10;26.50;96904.00;;;;5107455;28;20236;-66
2021/06/26 09:10:34;;;;;;;1.00;0.90;;;26.00;82.50;27.00;96907.00;;;;5093363;28;20209;-64
2021/06/26 09:13:25;;;;;;;1.03;0.90;;;26.30;83.00;27.10;96932.00;;;;5103252;28;20231;-66
2021/06/26 09:16:16;;;;;;;1.07;1.00;;;26.50;80.60;26.60;96902.00;;;;5097507;28;20515;-66
2021/06/26 09:19:13;;;;;;;0.80;0.80;;;26.60;78.30;26.30;96930.00;;;;5105301;28;20847;-66
2021/06/26 09:22:06;;;;;;;0.63;0.63;;;26.60;73.90;25.90;96927.00;;;;5102915;28;20208;-65
2021/06/26 09:24:55;;;;;;;0.83;0.83;;;26.30;76.00;26.20;96895.00;;;;5094060;28;20198;-65
2021/06/26 09:27:45;;;;;;;1.10;1.00;;;26.20;77.50;26.60;96893.00;;;;5107716;28;20201;-66
2021/06/26 09:30:40;;;;;;;0.80;0.70;;;26.40;77.30;26.70;96904.00;;;;5102216;28;20224;-65
2021/06/26 09:33:29;;;;;;;2.23;1.10;;;26.50;73.90;27.30;96896.00;;;;5105162;28;20540;-65
2021/06/26 09:36:25;;;;;;;1.10;1.00;;;26.70;77.30;27.50;96894.00;;;;5106781;28;20216;-65
2021/06/26 09:39:18;;;;;;;0.80;0.80;;;27.00;75.80;26.20;96898.00;;;;5106671;28;20670;-65
2021/06/26 09:42:18;;;;;;;1.20;1.00;;;27.00;69.60;25.80;96903.00;;;;5106238;28;20220;-66
2021/06/26 09:45:09;;;;;;;0.80;0.80;;;26.70;68.10;25.80;96894.00;;;;5103636;28;20210;-65
2021/06/26 09:48:06;;;;;;;1.13;0.73;;;26.40;69.30;26.20;96895.00;;;;5097581;28;20204;-65
2021/06/26 09:50:55;;;;;;;2.63;0.90;;;26.30;68.40;27.50;96889.00;;;;5106060;28;20211;-65
2021/06/26 09:53:53;;;;;;;0.90;0.83;;;26.60;75.70;27.20;96886.00;;;;5107897;28;20233;-65
2021/06/26 09:56:44;;;;;;;0.70;0.70;;;26.90;70.90;27.90;96903.00;;;;5108291;28;20211;-66
2021/06/26 09:59:35;;;;;;;1.07;0.97;;;27.20;71.00;27.90;96908.00;;;;5107038;28;20210;-65
2021/06/26 10:02:24;;;;;;;0.60;0.60;;;27.50;69.40;28.30;96895.00;;;;5105679;28;20216;-66
2021/06/26 10:05:15;;;;;;;0.80;0.77;;;27.80;68.20;28.10;96890.00;;;;5107335;28;20204;-65
2021/06/26 10:08:07;;;;;;;0.60;0.60;;;27.90;62.60;28.70;96892.00;;;;5107035;28;20201;-65
2021/06/26 10:10:59;;;;;;;1.50;1.10;;;28.00;65.30;28.40;96900.00;;;;5101557;28;20252;-65
2021/06/26 10:13:49;;;;;;;0.90;0.90;;;28.30;65.60;29.00;96893.00;;;;5105008;28;20239;-65
2021/06/26 10:16:40;;;;;;;0.80;0.80;;;28.40;69.80;29.50;96891.00;;;;5100719;28;20237;-65
2021/06/26 10:19:30;;;;;;;1.30;0.90;;;28.70;66.50;29.50;96891.00;;;;5103655;28;20707;-65
2021/06/26 10:22:19;;;;;;;0.93;0.90;;;29.00;63.50;29.70;96888.00;;;;5103371;28;20388;-66
2021/06/26 10:25:10;;;;;;;1.07;0.90;;;29.10;62.40;27.80;96878.00;;;;5101936;28;20195;-66
2021/06/26 10:28:09;;;;;;;1.20;1.10;;;29.00;58.00;28.60;96885.00;;;;5104954;28;20213;-66
2021/06/26 10:31:01;;;;;;;0.80;0.80;;;28.90;58.90;29.10;96876.00;;;;5106365;28;20222;-66
2021/06/26 10:33:50;;;;;;;1.30;1.20;;;28.90;59.90;29.50;96873.00;;;;5104124;28;20706;-66
2021/06/26 10:36:39;;;;;;;0.80;0.80;;;29.20;62.20;29.90;96870.00;;;;5103460;28;20199;-66
2021/06/26 10:39:31;;;;;;;1.27;1.17;;;29.30;61.10;29.10;96881.00;;;;5103735;28;20183;-64
2021/06/26 10:42:20;;;;;;;1.90;1.43;;;29.40;58.10;28.50;96914.00;;;;5105487;28;20234;-64
2021/06/26 10:45:28;;;;;;;2.17;1.03;;;29.20;58.90;28.30;96923.00;;;;5103832;28;20210;-66
2021/06/26 10:48:20;;;;;;;1.43;1.33;;;28.90;61.90;27.60;96923.00;;;;5102873;28;20210;-64
2021/06/26 10:51:11;;;;;;;0.73;0.70;;;28.40;60.70;27.80;96892.00;;;;5104277;27;20223;-66
2021/06/26 10:54:11;;;;;;;3.93;2.80;;;28.20;59.90;27.60;96926.00;;;;5105520;28;20248;-66
2021/06/26 10:57:06;;;;;;;4.77;3.00;;;28.00;60.60;27.50;96883.00;;;;5105825;28;20244;-66
2021/06/26 10:59:57;;;;;;;1.17;1.10;;;27.90;60.70;28.70;96871.00;;;;5105463;28;20210;-66
2021/06/26 11:02:47;;;;;;;1.33;0.90;;;28.00;61.30;29.70;96893.00;;;;5104318;28;20230;-66
2021/06/26 11:05:38;;;;;;;1.03;0.90;;;28.50;61.80;29.50;96874.00;;;;5104536;28;20203;-66
2021/06/26 11:08:27;;;;;;;0.70;0.70;;;28.90;58.20;30.10;96873.00;;;;5105503;28;20255;-67
2021/06/26 11:11:27;;;;;;;0.90;0.90;;;29.30;60.50;29.90;96869.00;;;;5104914;28;20219;-66
2021/06/26 11:14:20;;;;;;;0.93;0.90;;;29.60;58.00;30.10;96861.00;;;;5105060;28;20700;-64
2021/06/26 11:17:09;;;;;;;0.80;0.80;;;29.80;57.00;30.50;96864.00;;;;5105671;28;20213;-64
2021/06/26 11:19:59;;;;;;;1.07;0.90;;;30.00;57.10;29.80;96857.00;;;;5104676;28;20212;-65
2021/06/26 11:22:54;;;;;;;0.95;0.90;;;30.10;56.10;30.70;96918.00;;;;5106025;28;20232;-64
2021/06/26 11:25:44;;;;;;;1.17;1.08;;;30.20;57.10;29.60;96917.00;;;;5106480;28;20223;-67
2021/06/26 11:28:42;;;;;;;0.88;0.68;;;29.90;56.70;28.90;96906.00;;;;5094595;28;20216;-67
2021/06/26 11:31:35;;;;;;;1.13;1.08;;;29.60;56.60;28.60;96908.00;;;;5105538;28;20713;-67
2021/06/26 11:34:25;;;;;;;1.23;1.00;;;29.20;56.50;27.80;96867.00;;;;5105954;28;20261;-65
2021/06/26 11:37:15;;;;;;;1.37;1.00;;;28.80;56.50;29.90;96889.00;;;;5104911;28;20676;-65
2021/06/26 11:40:17;;;;;;;0.85;0.85;;;29.10;58.40;30.00;96823.00;;;;5104333;28;20207;-66
2021/06/26 11:43:06;;;;;;;1.05;0.93;;;29.30;58.80;31.10;96880.00;;;;5104617;28;20218;-66
2021/06/26 11:45:55;;;;;;;0.77;0.75;;;29.80;58.30;29.90;96896.00;;;;5104800;28;20208;-66
2021/06/26 11:48:46;;;;;;;0.82;0.80;;;29.80;56.70;30.30;96853.00;;;;5105747;28;20231;-66
2021/06/26 11:51:34;;;;;;;;;;;29.80;57.40;30.60;96890.00;;;;5097776;28;20078;-66
2021/06/26 11:54:25;;;;;;;2.97;0.73;;;30.00;58.10;29.60;96880.00;;;;5104823;28;20425;-68
2021/06/26 11:57:13;;;;;;;0.82;0.82;;;30.00;56.30;29.40;96883.00;;;;5105193;28;20691;-68
2021/06/26 12:00:04;;;;;;;1.13;0.90;;;29.80;56.80;29.60;96883.00;;;;5105280;28;20212;-68
2021/06/26 12:02:53;;;;;;;0.88;0.85;;;29.60;57.50;29.30;96889.00;;;;5104944;28;20218;-68
2021/06/26 12:05:42;;;;;;;0.90;0.90;;;29.50;57.50;29.60;96873.00;;;;5106522;28;20200;-66
2021/06/26 12:08:32;;;;;;;0.55;0.55;;;29.40;57.30;28.00;96860.00;;;;5098052;28;20205;-68
2021/06/26 12:11:25;;;;;;;1.08;0.57;;;29.10;56.10;27.40;96860.00;;;;5108841;28;20231;-67
2021/06/26 12:14:14;;;;;;;1.43;0.93;;;28.60;54.90;26.70;96857.00;;;;5109505;28;20591;-67
2021/06/26 12:17:10;;;;;;;1.03;0.83;;;27.90;56.80;26.40;96840.00;;;;5098157;28;20210;-66
2021/06/26 12:20:04;;;;;;;1.20;1.20;;;27.40;57.60;26.90;96847.00;;;;5108696;28;20245;-67
2021/06/26 12:23:07;;;;;;;1.03;0.70;;;27.30;59.00;26.00;96837.00;;;;5108540;28;20230;-66
2021/06/26 12:25:56;;;;;;;2.00;0.90;;;26.90;57.40;27.70;96792.00;;;;5108947;28;20689;-66
2021/06/26 12:28:47;;;;;;;0.93;0.87;;;27.10;59.60;27.70;96789.00;;;;5106802;28;20214;-67
2021/06/26 12:31:43;;;;;;;0.50;0.50;;;27.50;59.00;26.90;96783.00;;;;5101774;28;20219;-67
2021/06/26 12:34:32;;;;;;;0.67;0.67;;;27.40;57.80;27.80;96790.00;;;;5109164;28;20207;-67
2021/06/26 12:37:30;;;;;;;1.80;0.67;;;27.70;56.90;29.00;96782.00;;;;5107579;28;20201;-67